createdAt,value
2022-10-24T00:00:46.739Z,6.55
2022-10-24T00:03:14.414Z,7.85
2022-10-24T00:05:45.919Z,7.05
2022-10-24T00:08:13.280Z,13.40
2022-10-24T00:10:48.287Z,9.02
2022-10-24T00:13:16.550Z,7.40
2022-10-24T00:15:49.044Z,10.02
2022-10-24T00:18:16.842Z,7.53
2022-10-24T00:23:15.777Z,7.78
2022-10-24T00:25:42.703Z,5.70
2022-10-24T00:28:09.513Z,8.30
2022-10-24T00:30:36.346Z,5.50
2022-10-24T00:33:03.264Z,7.80
2022-10-24T00:35:30.191Z,3.35
2022-10-24T00:37:57.008Z,6.55
2022-10-24T00:40:24.440Z,7.82
2022-10-24T00:42:51.421Z,7.63
2022-10-24T00:48:26.994Z,8.20
2022-10-24T00:51:04.630Z,7.43
2022-10-24T00:53:35.072Z,8.25
2022-10-24T00:56:05.176Z,7.13
2022-10-24T00:58:35.171Z,10.88
2022-10-24T01:01:03.065Z,9.32
2022-10-24T01:03:30.089Z,11.18
2022-10-24T01:06:21.573Z,3.92
2022-10-24T01:09:08.241Z,6.80
2022-10-24T01:11:53.590Z,4.28
2022-10-24T01:14:48.269Z,10.10
2022-10-24T01:17:30.009Z,8.38
2022-10-24T01:20:17.772Z,11.82
2022-10-24T01:23:07.056Z,9.80
2022-10-24T01:25:45.843Z,11.15
2022-10-24T01:28:39.746Z,5.63
2022-10-24T01:31:11.593Z,6.47
2022-10-24T01:33:47.967Z,6.10
2022-10-24T01:36:21.140Z,11.93
2022-10-24T01:38:57.569Z,10.23
2022-10-24T01:41:26.919Z,8.90
2022-10-24T01:44:03.022Z,7.97
2022-10-24T01:46:35.850Z,8.43
2022-10-24T01:49:12.306Z,12.00
2022-10-24T01:51:41.549Z,7.25
2022-10-24T01:54:09.942Z,7.55
2022-10-24T01:56:36.969Z,9.93
2022-10-24T01:59:08.869Z,7.97
2022-10-24T02:01:37.311Z,8.98
2022-10-24T02:04:08.585Z,7.45
2022-10-24T02:06:40.107Z,12.90
2022-10-24T02:09:15.425Z,5.68
2022-10-24T02:11:44.197Z,7.93
2022-10-24T02:14:14.613Z,9.30
2022-10-24T02:16:42.657Z,11.48
2022-10-24T02:19:09.874Z,11.10
2022-10-24T02:21:54.505Z,12.05
2022-10-24T02:24:29.510Z,13.15
2022-10-24T02:27:06.670Z,9.05
2022-10-24T02:29:47.127Z,11.13
2022-10-24T02:32:21.540Z,12.85
2022-10-24T02:34:49.344Z,19.38
2022-10-24T02:37:17.344Z,12.30
2022-10-24T02:39:47.479Z,11.73
2022-10-24T02:42:15.748Z,10.48
2022-10-24T02:44:43.969Z,14.20
2022-10-24T02:47:13.040Z,11.90
2022-10-24T02:49:41.824Z,15.85
2022-10-24T02:52:09.013Z,13.85
2022-10-24T02:54:35.837Z,11.73
2022-10-24T02:57:03.990Z,10.95
2022-10-24T02:59:31.135Z,17.63
2022-10-24T03:01:58.221Z,12.63
2022-10-24T03:04:25.020Z,12.02
2022-10-24T03:06:53.251Z,19.42
2022-10-24T03:09:20.086Z,11.45
2022-10-24T03:11:46.935Z,11.65
2022-10-24T03:14:13.752Z,9.35
2022-10-24T03:16:40.727Z,9.32
2022-10-24T03:19:07.542Z,15.77
2022-10-24T03:21:34.543Z,10.82
2022-10-24T03:24:01.587Z,11.40
2022-10-24T03:26:28.515Z,8.90
2022-10-24T03:29:04.465Z,8.38
2022-10-24T03:31:31.620Z,9.40
2022-10-24T03:33:59.364Z,9.00
2022-10-24T03:36:26.336Z,7.45
2022-10-24T03:38:53.153Z,11.38
2022-10-24T03:41:20.012Z,8.20
2022-10-24T03:43:46.841Z,11.38
2022-10-24T03:46:13.670Z,11.77
2022-10-24T03:48:40.447Z,9.93
2022-10-24T03:51:07.429Z,8.48
2022-10-24T03:53:34.302Z,10.68
2022-10-24T03:56:01.236Z,16.92
2022-10-24T03:58:28.182Z,10.43
2022-10-24T04:00:58.037Z,13.45
2022-10-24T04:03:26.451Z,9.15
2022-10-24T04:05:53.742Z,14.55
2022-10-24T04:08:20.637Z,8.23
2022-10-24T04:10:49.511Z,10.73
2022-10-24T04:13:16.462Z,12.15
2022-10-24T04:15:43.337Z,8.52
2022-10-24T04:18:10.267Z,7.82
2022-10-24T04:20:37.181Z,12.63
2022-10-24T04:23:04.681Z,8.70
2022-10-24T04:25:32.127Z,6.43
2022-10-24T04:27:58.952Z,10.60
2022-10-24T04:30:26.464Z,9.77
2022-10-24T04:32:53.330Z,11.38
2022-10-24T04:35:20.096Z,13.68
2022-10-24T04:37:46.928Z,10.13
2022-10-24T04:40:14.235Z,9.80
2022-10-24T04:42:41.152Z,7.45
2022-10-24T04:45:08.690Z,7.47
2022-10-24T04:47:35.764Z,7.35
2022-10-24T04:50:02.909Z,7.53
2022-10-24T04:52:29.749Z,9.90
2022-10-24T04:54:56.537Z,9.68
2022-10-24T04:57:23.383Z,11.27
2022-10-24T04:59:50.121Z,7.60
2022-10-24T05:02:17.017Z,11.95
2022-10-24T05:04:43.883Z,11.45
2022-10-24T05:07:10.744Z,8.85
2022-10-24T05:09:37.510Z,8.65
2022-10-24T05:12:04.878Z,6.93
2022-10-24T05:14:31.765Z,5.95
2022-10-24T05:16:58.616Z,8.77
2022-10-24T05:19:25.381Z,5.53
2022-10-24T05:21:52.174Z,9.32
2022-10-24T05:24:18.925Z,10.15
2022-10-24T05:26:45.838Z,8.32
2022-10-24T05:29:12.641Z,12.10
2022-10-24T05:31:39.558Z,7.25
2022-10-24T05:34:06.526Z,6.40
2022-10-24T05:36:33.359Z,5.78
2022-10-24T05:39:00.133Z,6.10
2022-10-24T05:41:26.992Z,6.95
2022-10-24T05:43:53.747Z,8.32
2022-10-24T05:46:20.747Z,6.75
2022-10-24T05:48:47.677Z,5.10
2022-10-24T05:51:14.556Z,7.63
2022-10-24T05:53:41.381Z,9.23
2022-10-24T05:56:08.530Z,8.85
2022-10-24T05:58:35.304Z,8.15
2022-10-24T06:01:02.409Z,8.68
2022-10-24T06:03:29.276Z,8.18
2022-10-24T06:05:56.221Z,9.57
2022-10-24T06:08:22.993Z,8.13
2022-10-24T06:10:51.060Z,9.60
2022-10-24T06:13:18.427Z,5.55
2022-10-24T06:15:45.733Z,10.80
2022-10-24T06:18:12.559Z,7.32
2022-10-24T06:20:39.460Z,6.93
2022-10-24T06:23:06.354Z,6.20
2022-10-24T06:25:33.248Z,10.82
2022-10-24T06:28:00.600Z,11.90
2022-10-24T06:30:27.879Z,14.60
2022-10-24T06:32:54.754Z,11.90
2022-10-24T06:35:21.597Z,9.25
2022-10-24T06:37:48.713Z,10.45
2022-10-24T06:40:17.069Z,7.38
2022-10-24T06:42:44.328Z,10.60
2022-10-24T06:45:11.888Z,8.93
2022-10-24T06:47:39.020Z,7.95
2022-10-24T06:50:06.809Z,9.70
2022-10-24T06:52:33.540Z,9.00
2022-10-24T06:55:00.419Z,7.90
2022-10-24T06:57:27.209Z,7.30
2022-10-24T06:59:54.051Z,9.65
2022-10-24T07:02:21.162Z,12.18
2022-10-24T07:04:48.117Z,8.45
2022-10-24T07:07:20.771Z,13.23
2022-10-24T07:09:56.462Z,12.93
2022-10-24T07:12:24.773Z,8.38
2022-10-24T07:14:51.993Z,11.65
2022-10-24T07:17:20.120Z,13.27
2022-10-24T07:19:52.788Z,13.60
2022-10-24T07:22:19.762Z,15.55
2022-10-24T07:24:51.787Z,11.02
2022-10-24T07:27:18.726Z,16.83
2022-10-24T07:29:45.483Z,15.38
2022-10-24T07:32:12.343Z,18.35
2022-10-24T07:34:40.442Z,18.50
2022-10-24T07:37:07.754Z,15.88
2022-10-24T07:39:34.629Z,17.40
2022-10-24T07:42:01.510Z,18.42
2022-10-24T07:44:28.334Z,20.52
2022-10-24T07:46:55.257Z,22.60
2022-10-24T07:49:22.201Z,15.05
2022-10-24T07:52:08.367Z,18.02
2022-10-24T07:54:37.248Z,18.90
2022-10-24T07:57:04.830Z,16.02
2022-10-24T07:59:41.631Z,16.95
2022-10-24T08:02:11.945Z,12.07
2022-10-24T08:04:39.338Z,16.10
2022-10-24T08:07:13.495Z,12.52
2022-10-24T08:09:46.909Z,13.13
2022-10-24T08:12:14.445Z,16.20
2022-10-24T08:14:41.655Z,12.27
2022-10-24T08:17:08.863Z,16.23
2022-10-24T08:19:36.454Z,17.35
2022-10-24T08:22:03.739Z,14.68
2022-10-24T08:24:30.511Z,14.25
2022-10-24T08:26:57.401Z,17.77
2022-10-24T08:29:25.199Z,17.48
2022-10-24T08:31:54.292Z,13.98
2022-10-24T08:34:21.631Z,10.27
2022-10-24T08:36:49.590Z,15.98
2022-10-24T08:39:17.249Z,14.35
2022-10-24T08:41:59.260Z,13.95
2022-10-24T08:44:28.738Z,9.85
2022-10-24T08:47:17.366Z,15.82
2022-10-24T08:49:51.551Z,11.82
2022-10-24T08:52:40.767Z,12.68
2022-10-24T08:55:30.917Z,14.05
2022-10-24T08:58:12.019Z,8.30
2022-10-24T09:00:42.585Z,10.80
2022-10-24T09:03:26.533Z,12.52
2022-10-24T09:06:16.427Z,14.40
2022-10-24T09:08:46.062Z,12.75
2022-10-24T09:11:43.286Z,21.77
2022-10-24T09:14:23.024Z,13.52
2022-10-24T09:16:57.941Z,15.82
2022-10-24T09:19:27.751Z,12.43
2022-10-24T09:21:57.601Z,14.60
2022-10-24T09:24:47.581Z,12.57
2022-10-24T09:27:29.405Z,17.95
2022-10-24T09:29:58.075Z,13.93
2022-10-24T09:32:27.394Z,21.63
2022-10-24T09:34:55.085Z,12.23
2022-10-24T09:37:42.462Z,17.15
2022-10-24T09:40:22.683Z,13.40
2022-10-24T09:42:52.671Z,12.32
2022-10-24T09:45:28.608Z,12.52
2022-10-24T09:47:58.402Z,12.23
2022-10-24T09:50:25.881Z,14.80
2022-10-24T09:52:56.997Z,9.38
2022-10-24T09:55:28.985Z,12.68
2022-10-24T09:57:59.475Z,10.43
2022-10-24T10:00:33.430Z,14.68
2022-10-24T10:03:03.811Z,14.27
2022-10-24T10:05:49.297Z,15.93
2022-10-24T10:08:31.519Z,14.27
2022-10-24T10:11:03.337Z,11.30
2022-10-24T10:13:30.928Z,10.32
2022-10-24T10:16:02.422Z,8.98
2022-10-24T10:18:38.235Z,11.90
2022-10-24T10:21:18.363Z,12.98
2022-10-24T10:23:47.913Z,12.32
2022-10-24T10:26:23.483Z,10.45
2022-10-24T10:28:50.281Z,11.98
2022-10-24T10:31:21.014Z,14.52
2022-10-24T10:34:04.059Z,12.23
2022-10-24T10:36:58.327Z,14.98
2022-10-24T10:39:30.822Z,8.98
2022-10-24T10:42:09.174Z,11.48
2022-10-24T10:44:59.565Z,20.35
2022-10-24T10:47:50.942Z,10.77
2022-10-24T10:50:37.127Z,9.02
2022-10-24T10:53:22.377Z,12.15
2022-10-24T10:55:58.916Z,11.15
2022-10-24T10:58:28.813Z,10.00
2022-10-24T11:01:33.623Z,12.70
2022-10-24T11:04:15.593Z,10.23
2022-10-24T11:06:57.933Z,9.60
2022-10-24T11:09:24.806Z,12.80
2022-10-24T11:12:13.145Z,8.48
2022-10-24T11:14:46.916Z,6.10
2022-10-24T11:17:16.536Z,13.88
2022-10-24T11:20:08.364Z,6.00
2022-10-24T11:22:50.748Z,7.40
2022-10-24T11:25:17.582Z,6.63
2022-10-24T11:27:54.987Z,9.40
2022-10-24T11:30:30.864Z,9.63
2022-10-24T11:33:02.022Z,15.63
2022-10-24T11:35:33.207Z,10.15
2022-10-24T11:38:30.507Z,10.07
2022-10-24T11:41:23.992Z,11.50
2022-10-24T11:43:55.025Z,10.52
2022-10-24T11:46:39.240Z,11.13
2022-10-24T11:49:31.212Z,13.88
2022-10-24T11:52:05.078Z,17.20
2022-10-24T11:54:44.379Z,11.65
2022-10-24T11:57:20.864Z,14.13
2022-10-24T11:59:51.071Z,14.20
2022-10-24T12:02:47.838Z,9.40
2022-10-24T12:05:51.354Z,12.70
2022-10-24T12:08:36.425Z,15.60
2022-10-24T12:11:38.174Z,12.50
2022-10-24T12:14:14.027Z,13.82
2022-10-24T12:17:06.190Z,12.93
2022-10-24T12:19:33.726Z,15.40
2022-10-24T12:22:04.587Z,12.90
2022-10-24T12:24:38.781Z,14.57
2022-10-24T12:27:25.733Z,20.75
2022-10-24T12:30:24.242Z,14.63
2022-10-24T12:33:37.623Z,12.10
2022-10-24T12:36:04.773Z,10.82
2022-10-24T12:38:31.505Z,8.13
2022-10-24T12:41:06.594Z,12.18
2022-10-24T12:43:40.613Z,13.25
2022-10-24T12:46:22.704Z,13.30
2022-10-24T12:48:59.251Z,16.98
2022-10-24T12:51:36.406Z,8.00
2022-10-24T12:54:15.625Z,10.55
2022-10-24T12:56:52.196Z,10.07
2022-10-24T12:59:29.507Z,16.88
2022-10-24T13:02:11.315Z,17.23
2022-10-24T13:05:03.046Z,12.20
2022-10-24T13:07:48.403Z,14.35
2022-10-24T13:10:46.704Z,15.45
2022-10-24T13:13:35.517Z,21.13
2022-10-24T13:16:24.003Z,18.60
2022-10-24T13:18:56.975Z,16.92
2022-10-24T13:21:45.589Z,18.88
2022-10-24T13:24:16.696Z,15.60
2022-10-24T13:26:49.112Z,17.67
2022-10-24T13:29:38.685Z,24.70
2022-10-24T13:32:05.489Z,19.63
2022-10-24T13:34:46.652Z,15.20
2022-10-24T13:37:21.313Z,18.77
2022-10-24T13:39:53.792Z,12.80
2022-10-24T13:42:23.449Z,15.20
2022-10-24T13:44:54.638Z,14.63
2022-10-24T13:47:41.715Z,19.17
2022-10-24T13:50:23.717Z,23.20
2022-10-24T13:53:29.578Z,17.73
2022-10-24T13:56:10.407Z,19.52
2022-10-24T13:58:44.306Z,18.67
2022-10-24T14:01:23.961Z,18.50
2022-10-24T14:03:52.481Z,20.23
2022-10-24T14:06:32.303Z,19.27
2022-10-24T14:09:10.221Z,16.48
2022-10-24T14:11:43.799Z,14.13
2022-10-24T14:14:33.672Z,13.90
2022-10-24T14:17:26.337Z,15.73
2022-10-24T14:19:58.015Z,13.73
2022-10-24T14:22:36.185Z,17.17
2022-10-24T14:25:03.605Z,20.55
2022-10-24T14:27:30.518Z,13.18
2022-10-24T14:30:01.539Z,14.63
2022-10-24T14:32:29.967Z,17.48
2022-10-24T14:34:59.469Z,15.02
2022-10-24T14:37:32.894Z,8.90
2022-10-24T14:40:00.595Z,13.98
2022-10-24T14:42:28.341Z,13.20
2022-10-24T14:44:58.519Z,15.45
2022-10-24T14:47:31.563Z,17.58
2022-10-24T14:50:01.940Z,18.63
2022-10-24T14:52:38.081Z,13.55
2022-10-24T14:55:18.929Z,13.35
2022-10-24T14:57:50.721Z,11.38
2022-10-24T15:00:23.679Z,20.98
2022-10-24T15:02:53.663Z,11.57
2022-10-24T15:05:20.561Z,11.05
2022-10-24T15:08:20.236Z,12.80
2022-10-24T15:10:43.991Z,16.25
2022-10-24T15:13:21.442Z,11.40
2022-10-24T15:15:51.996Z,19.10
2022-10-24T15:18:23.617Z,13.80
2022-10-24T15:21:05.082Z,16.13
2022-10-24T15:23:38.212Z,14.30
2022-10-24T15:26:11.452Z,10.30
2022-10-24T15:28:56.658Z,14.73
2022-10-24T15:31:27.594Z,17.15
2022-10-24T15:33:55.545Z,9.48
2022-10-24T15:36:31.890Z,15.63
2022-10-24T15:39:05.052Z,34.70
2022-10-24T15:41:32.420Z,12.27
2022-10-24T15:44:01.168Z,19.38
2022-10-24T15:46:28.269Z,12.27
2022-10-24T15:48:55.373Z,11.85
2022-10-24T15:51:24.106Z,11.18
2022-10-24T15:53:52.803Z,33.92
2022-10-24T15:56:20.168Z,11.30
2022-10-24T16:01:27.749Z,12.75
2022-10-24T16:03:55.182Z,13.80
2022-10-24T16:06:22.599Z,20.25
2022-10-24T16:08:50.333Z,12.93
2022-10-24T16:11:17.639Z,12.02
2022-10-24T16:13:44.685Z,9.55
2022-10-24T16:16:11.812Z,9.80
2022-10-24T16:18:38.700Z,12.45
2022-10-24T16:21:05.743Z,15.45
2022-10-24T16:23:33.442Z,13.05
2022-10-24T16:26:00.644Z,11.82
2022-10-24T16:28:28.847Z,12.05
2022-10-24T16:30:56.183Z,10.65
2022-10-24T16:33:23.159Z,16.42
2022-10-24T16:35:50.122Z,12.15
2022-10-24T16:38:17.439Z,13.07
2022-10-24T16:40:46.761Z,15.18
2022-10-24T16:43:16.173Z,11.93
2022-10-24T16:45:43.434Z,14.50
2022-10-24T16:48:10.706Z,11.95
2022-10-24T16:50:46.390Z,14.40
2022-10-24T16:53:15.426Z,12.80
2022-10-24T16:55:47.144Z,11.13
2022-10-24T16:58:14.017Z,12.88
2022-10-24T17:00:40.816Z,10.77
2022-10-24T17:03:08.345Z,9.38
2022-10-24T17:05:35.233Z,15.98
2022-10-24T17:08:02.285Z,15.68
2022-10-24T17:10:29.251Z,12.73
2022-10-24T17:12:56.404Z,14.02
2022-10-24T17:15:23.300Z,13.18
2022-10-24T17:17:50.747Z,11.65
2022-10-24T17:20:18.067Z,10.00
2022-10-24T17:22:46.433Z,16.10
2022-10-24T17:25:27.819Z,11.77
2022-10-24T17:27:55.194Z,12.38
2022-10-24T17:30:25.548Z,12.10
2022-10-24T17:32:53.183Z,16.70
2022-10-24T17:35:22.124Z,8.93
2022-10-24T17:38:06.579Z,11.70
2022-10-24T17:40:45.691Z,10.10
2022-10-24T17:43:30.847Z,11.70
2022-10-24T17:45:58.048Z,10.67
2022-10-24T17:48:25.126Z,9.25
2022-10-24T17:50:55.633Z,8.98
2022-10-24T17:53:22.507Z,7.50
2022-10-24T17:55:49.370Z,8.18
2022-10-24T17:58:16.651Z,6.00
2022-10-24T18:00:44.320Z,7.35
2022-10-24T18:03:11.642Z,7.53
2022-10-24T18:05:39.176Z,12.13
2022-10-24T18:08:08.259Z,5.72
2022-10-24T18:10:38.506Z,7.15
2022-10-24T18:13:06.291Z,7.25
2022-10-24T18:15:33.556Z,9.35
2022-10-24T18:18:00.451Z,9.38
2022-10-24T18:20:27.475Z,9.85
2022-10-24T18:22:54.332Z,6.85
2022-10-24T18:25:23.048Z,8.27
2022-10-24T18:27:50.830Z,5.90
2022-10-24T18:30:19.381Z,8.32
2022-10-24T18:32:47.269Z,9.40
2022-10-24T18:35:15.478Z,6.97
2022-10-24T18:37:42.474Z,8.40
2022-10-24T18:40:10.073Z,7.47
2022-10-24T18:42:48.331Z,8.82
2022-10-24T18:45:21.222Z,12.02
2022-10-24T18:47:49.410Z,6.38
2022-10-24T18:50:19.565Z,7.13
2022-10-24T18:53:06.685Z,11.75
2022-10-24T18:55:35.717Z,7.20
2022-10-24T18:58:03.311Z,8.85
2022-10-24T19:00:32.879Z,16.27
2022-10-24T19:03:08.690Z,11.18
2022-10-24T19:05:47.850Z,7.32
2022-10-24T19:08:23.312Z,9.60
2022-10-24T19:10:52.999Z,7.88
2022-10-24T19:13:19.891Z,9.18
2022-10-24T19:16:04.003Z,9.30
2022-10-24T19:18:34.978Z,11.02
2022-10-24T19:21:02.146Z,15.55
2022-10-24T19:23:28.942Z,10.95
2022-10-24T19:25:55.817Z,7.28
2022-10-24T19:28:22.631Z,7.20
2022-10-24T19:30:49.633Z,9.07
2022-10-24T19:33:16.773Z,8.68
2022-10-24T19:35:47.749Z,9.18
2022-10-24T19:38:19.051Z,8.10
2022-10-24T19:40:52.003Z,13.30
2022-10-24T19:43:19.979Z,11.70
2022-10-24T19:45:54.901Z,10.13
2022-10-24T19:48:35.003Z,9.13
2022-10-24T19:51:07.095Z,13.77
2022-10-24T19:53:35.382Z,6.13
2022-10-24T19:56:06.846Z,10.85
2022-10-24T19:58:34.001Z,6.68
2022-10-24T20:01:28.673Z,8.80
2022-10-24T20:03:56.627Z,6.95
2022-10-24T20:06:26.207Z,9.82
2022-10-24T20:08:53.137Z,8.88
2022-10-24T20:11:20.692Z,12.52
2022-10-24T20:13:48.932Z,8.75
2022-10-24T20:16:15.795Z,10.35
2022-10-24T20:18:43.947Z,10.32
2022-10-24T20:21:16.215Z,15.48
2022-10-24T20:23:43.727Z,17.73
2022-10-24T20:26:16.407Z,12.32
2022-10-24T20:28:46.434Z,13.75
2022-10-24T20:31:39.475Z,13.00
2022-10-24T20:34:11.133Z,9.75
2022-10-24T20:36:44.564Z,19.55
2022-10-24T20:39:12.157Z,11.90
2022-10-24T20:41:39.187Z,13.05
2022-10-24T20:44:07.197Z,13.88
2022-10-24T20:46:34.945Z,17.20
2022-10-24T20:49:01.961Z,14.02
2022-10-24T20:51:28.848Z,14.88
2022-10-24T20:53:55.739Z,14.20
2022-10-24T20:56:25.983Z,12.48
2022-10-24T20:58:54.979Z,18.33
2022-10-24T21:01:27.777Z,14.70
2022-10-24T21:03:56.053Z,14.95
2022-10-24T21:06:31.877Z,13.73
2022-10-24T21:09:01.233Z,16.45
2022-10-24T21:11:30.598Z,16.58
2022-10-24T21:14:03.381Z,16.35
2022-10-24T21:16:30.871Z,15.00
2022-10-24T21:18:58.481Z,12.38
2022-10-24T21:21:26.620Z,15.65
2022-10-24T21:23:55.995Z,14.63
2022-10-24T21:26:23.666Z,12.48
2022-10-24T21:28:59.403Z,20.65
2022-10-24T21:31:40.236Z,15.13
2022-10-24T21:34:07.088Z,12.63
2022-10-24T21:36:33.896Z,17.13
2022-10-24T21:39:00.713Z,10.65
2022-10-24T21:41:28.356Z,11.68
2022-10-24T21:43:55.427Z,18.92
2022-10-24T21:46:29.315Z,16.13
2022-10-24T21:48:57.154Z,12.07
2022-10-24T21:51:27.146Z,14.25
2022-10-24T21:53:59.724Z,13.63
2022-10-24T21:56:29.286Z,15.10
2022-10-24T22:01:31.264Z,17.48
2022-10-24T22:03:59.689Z,15.40
2022-10-24T22:06:27.812Z,17.95
2022-10-24T22:08:55.944Z,23.50
2022-10-24T22:11:26.066Z,19.27
2022-10-24T22:13:54.058Z,22.38
2022-10-24T22:16:23.200Z,16.20
2022-10-24T22:18:50.657Z,16.17
2022-10-24T22:21:22.593Z,23.15
2022-10-24T22:23:49.397Z,18.33
2022-10-24T22:26:16.171Z,18.25
2022-10-24T22:28:43.061Z,25.52
2022-10-24T22:31:13.635Z,21.05
2022-10-24T22:33:41.645Z,16.15
2022-10-24T22:36:27.199Z,20.00
2022-10-24T22:38:54.924Z,16.75
2022-10-24T22:41:22.826Z,18.35
2022-10-24T22:43:50.315Z,20.63
2022-10-24T22:46:38.856Z,23.08
2022-10-24T22:49:19.193Z,24.20
2022-10-24T22:51:46.216Z,25.88
2022-10-24T22:54:20.622Z,22.85
2022-10-24T22:56:47.892Z,23.40
2022-10-24T22:59:14.991Z,23.38
2022-10-24T23:02:19.113Z,23.05
2022-10-24T23:05:07.059Z,27.10
2022-10-24T23:07:58.688Z,21.90
2022-10-24T23:10:25.963Z,26.85
2022-10-24T23:12:53.294Z,20.25
2022-10-24T23:15:21.653Z,21.80
2022-10-24T23:17:49.722Z,26.85
2022-10-24T23:20:34.681Z,28.50
2022-10-24T23:23:16.956Z,27.45
2022-10-24T23:26:01.861Z,27.92
2022-10-24T23:28:44.364Z,28.55
2022-10-24T23:31:11.560Z,23.20
2022-10-24T23:33:38.584Z,19.15
2022-10-24T23:36:05.878Z,24.95
2022-10-24T23:38:33.435Z,26.63
2022-10-24T23:41:00.662Z,25.42
2022-10-24T23:43:27.719Z,25.90
2022-10-24T23:46:05.043Z,21.40
2022-10-24T23:48:51.228Z,22.83
2022-10-24T23:51:24.640Z,19.60
2022-10-24T23:53:55.915Z,23.45
2022-10-24T23:56:27.723Z,24.85
2022-10-24T23:58:55.421Z,27.95
